Hlavní strana
METAR-TAF:

METAR-TAF

Letiště :

Salvador, Salvador

zeměpisná šířka: 13-26N, zeměpisná délka: 089-03W, výška: 25 m

Aktuální stav počasí

Zpráva byla vytvořena před 55 minutami, v 18:50 UTC
Západojihozápadní vítr 11 kt, proměnlivý mezi jihojihozápadním a západním
Teplota 33°C
Vlhkost vzduchu 63%
Tlak 1011 hPa
Viditelnost 10 km a více
Polojasno ve výšce 7200 ft

METAR: MSLP 181850Z 24011KT 200V260 9999 SCT072 33/25 Q1011 A2986 NOSIG

Čas: 13:45 (19:45 UTC)

Předpověď počasí

Zpráva byla vytvořena před 4 hodinami a 20 minutami, v 15:25 UTC
Předpověď platná od 18 v 18 UTC do 19 v 18 UTC
Jižní vítr 8 kt
Viditelnost 10 km a více
Skoro jasno ve výšce 4300 ft
Od 19 v 0000 UTC
vítr z různých směrů 3 kt
Viditelnost 10 km a více
Polojasno ve výšce 7000 ft
Od 19 v 0500 UTC
Východoseverovýchodní vítr 4 kt
Viditelnost 10 km a více
Žádná oblačnost pod 1500 m, nevyskytují se cumulonimby.

TAF: MSLP 181525Z 1818/1918 19008KT 9999 FEW043 TX36/1818Z TN24/1912Z FM190000 VRB03KT 9999 SCT070 FM190500 07004KT CAVOK

Stav a předpovědi počasí z více než 4 000 letišť (zprávy METAR a TAF).

Červené a žluté tečky na mapě představují dostupné meteorologické stanice.

Když kurzor umístíte na tečku, zobrazí se název stanice.

Pak kliknutím zobrazíte stav a předpověď počasí.

Chcete-li změnit mapu, kliknutím na zelené tlačítko se znaménkem +mapu přiblížíte, kliknutím na zelené tlačítko se znaménkem – mapu oddálíte a kliknutím na zelené šipky přejdete na sousední mapy.


METAR-TAF: